Time;durP1;ratioP1;P1;durP2;ratioP2;P2;SDS_P1;SDS_P2;PMS_P1;PMS_P2;Temp;Humidity;BMP_temperature;BMP_pressure;BME280_temperature;BME280_humidity;BME280_pressure;Samples;Min_cycle;Max_cycle;Signal;HPM_P1;HPM_P2
2023/10/09 00:01:26;;;;;;;1.27;1.17;;;;;;;17.03;72.62;102112.88;5060115;28;20548;-81
2023/10/09 00:03:54;;;;;;;0.75;0.75;;;;;;;17.05;72.96;102103.03;5059495;28;20558;-80
2023/10/09 00:06:30;;;;;;;0.38;0.38;;;;;;;17.06;73.01;102109.25;5061708;28;20025;-81
2023/10/09 00:08:58;;;;;;;0.20;0.20;;;;;;;17.08;72.73;102105.59;5060563;28;20025;-81
2023/10/09 00:11:29;;;;;;;0.57;0.57;;;;;;;17.07;72.75;102101.19;5061554;28;20394;-79
2023/10/09 00:13:57;;;;;;;3.70;1.35;;;;;;;17.05;73.12;102097.66;5065732;28;20126;-79
2023/10/09 00:16:47;;;;;;;3.15;0.70;;;;;;;17.09;72.86;102099.31;5068294;28;20047;-79
2023/10/09 00:19:16;;;;;;;0.52;0.52;;;;;;;17.10;72.68;102103.78;5064526;28;20055;-79
2023/10/09 00:21:44;;;;;;;0.10;0.10;;;;;;;17.12;73.08;102101.94;5064486;28;20024;-80
2023/10/09 00:24:13;;;;;;;0.85;0.73;;;;;;;17.10;72.88;102106.44;5063250;28;20745;-80
2023/10/09 00:26:45;;;;;;;0.28;0.22;;;;;;;17.15;72.43;102103.66;5067225;28;20027;-80
2023/10/09 00:29:21;;;;;;;0.10;0.10;;;;;;;17.20;72.21;102095.50;5067363;28;20040;-80
2023/10/09 00:32:03;;;;;;;0.40;0.40;;;;;;;17.18;72.54;102102.69;5070006;28;20363;-80
2023/10/09 00:34:29;;;;;;;0.90;0.90;;;;;;;17.21;72.55;102097.22;5063461;28;20073;-80
2023/10/09 00:37:04;;;;;;;0.63;0.63;;;;;;;17.25;72.31;102093.56;5069489;28;20378;-80
2023/10/09 00:39:41;;;;;;;1.17;0.32;;;;;;;17.24;72.87;102095.34;5061040;28;20166;-79
2023/10/09 00:42:07;;;;;;;0.10;0.10;;;;;;;17.28;72.70;102094.38;5059333;28;20120;-81
2023/10/09 00:44:41;;;;;;;1.00;1.00;;;;;;;17.28;72.92;102098.81;5065872;28;20085;-82
2023/10/09 00:47:20;;;;;;;0.43;0.43;;;;;;;17.34;72.49;102087.94;5059332;28;20029;-81
2023/10/09 00:49:57;;;;;;;0.10;0.10;;;;;;;17.39;72.66;102090.50;5057567;28;20029;-81
2023/10/09 00:52:31;;;;;;;0.32;0.32;;;;;;;17.42;72.60;102088.59;5057162;28;20380;-81
2023/10/09 00:55:04;;;;;;;0.47;0.47;;;;;;;17.43;72.64;102087.69;5057602;28;20032;-81
2023/10/09 00:57:37;;;;;;;0.22;0.22;;;;;;;17.49;72.31;102091.09;5056132;28;20055;-79
2023/10/09 01:00:12;;;;;;;0.10;0.10;;;;;;;17.51;72.61;102089.25;5060261;28;20043;-81
2023/10/09 01:02:42;;;;;;;0.30;0.30;;;;;;;17.56;72.03;102085.50;5059093;28;20029;-80
2023/10/09 01:05:26;;;;;;;0.30;0.30;;;;;;;17.58;72.28;102086.34;5055794;28;20031;-80
2023/10/09 01:07:58;;;;;;;0.25;0.25;;;;;;;17.61;72.40;102085.38;5058847;28;20036;-79
2023/10/09 01:10:26;;;;;;;0.30;0.30;;;;;;;17.66;72.10;102078.09;5062052;28;20394;-80
2023/10/09 01:12:55;;;;;;;0.10;0.10;;;;;;;17.69;72.07;102083.34;5053177;28;20017;-80
2023/10/09 01:15:36;;;;;;;0.00;0.00;;;;;;;17.72;71.93;102071.66;5061226;28;20043;-80
2023/10/09 01:18:02;;;;;;;0.20;0.20;;;;;;;17.75;72.00;102072.44;5060145;28;20037;-79
2023/10/09 01:20:32;;;;;;;0.10;0.10;;;;;;;17.79;72.04;102063.38;5067184;28;20413;-80
2023/10/09 01:23:01;;;;;;;0.55;0.55;;;;;;;17.84;71.89;102054.31;5062031;28;20036;-79
2023/10/09 01:25:41;;;;;;;0.20;0.20;;;;;;;17.85;72.05;102048.03;5060840;28;20414;-81
2023/10/09 01:28:07;;;;;;;0.10;0.10;;;;;;;17.89;72.06;102052.38;5062665;28;20608;-81
2023/10/09 01:30:34;;;;;;;0.10;0.10;;;;;;;17.92;71.94;102044.25;5057046;28;20021;-79
2023/10/09 01:33:12;;;;;;;0.10;0.10;;;;;;;17.94;71.83;102039.72;5064233;28;20669;-79
2023/10/09 01:35:47;;;;;;;0.75;0.75;;;;;;;17.95;72.01;102042.34;5055539;28;20398;-78
2023/10/09 01:38:15;;;;;;;0.70;0.70;;;;;;;17.97;72.00;102038.75;5060841;28;20033;-80
2023/10/09 01:40:43;;;;;;;0.10;0.10;;;;;;;17.99;71.78;102035.09;5058850;28;20041;-79
2023/10/09 01:43:09;;;;;;;0.10;0.10;;;;;;;17.99;71.70;102043.13;5068211;28;20032;-78
2023/10/09 01:45:46;;;;;;;0.38;0.38;;;;;;;17.97;71.75;102028.00;5057847;28;20478;-78
2023/10/09 01:48:14;;;;;;;0.10;0.10;;;;;;;17.97;71.74;102028.91;5061976;28;20039;-79
2023/10/09 01:50:41;;;;;;;0.10;0.10;;;;;;;17.97;71.73;102023.56;5061512;28;20085;-80
2023/10/09 01:53:08;;;;;;;0.40;0.40;;;;;;;17.91;72.49;102034.44;5063572;28;20053;-80
2023/10/09 01:55:38;;;;;;;0.40;0.40;;;;;;;17.92;72.60;102030.84;5061284;28;20032;-81
2023/10/09 01:58:06;;;;;;;0.10;0.10;;;;;;;17.99;72.20;102027.03;5071304;28;20119;-80
2023/10/09 02:00:35;;;;;;;0.10;0.10;;;;;;;18.00;72.11;102026.13;5063801;28;20033;-80
2023/10/09 02:03:05;;;;;;;0.10;0.10;;;;;;;18.00;72.18;102023.44;5062538;28;20024;-80
2023/10/09 02:05:35;;;;;;;0.10;0.10;;;;;;;18.00;72.50;102028.78;5059540;28;20020;-80
2023/10/09 02:08:04;;;;;;;0.10;0.10;;;;;;;18.06;72.13;102025.06;5060069;28;20031;-80
2023/10/09 02:13:10;;;;;;;0.50;0.50;;;;;;;18.08;72.62;102026.75;5108302;27;20524;-81
2023/10/09 02:15:51;;;;;;;0.25;0.25;;;;;;;18.10;72.51;102024.00;5096877;28;20089;-80
2023/10/09 02:18:26;;;;;;;0.40;0.40;;;;;;;18.15;72.21;102026.56;5081638;28;20081;-80
2023/10/09 02:23:57;;;;;;;0.10;0.10;;;;;;;18.16;72.27;101993.44;5054312;28;20137;-79
2023/10/09 02:26:26;;;;;;;0.10;0.10;;;;;;;18.16;72.09;101999.69;5047827;28;20457;-80
2023/10/09 02:29:26;;;;;;;0.10;0.10;;;;;;;18.15;72.43;101999.72;5051882;28;20029;-80
2023/10/09 02:31:44;;;;;;;0.10;0.10;;;;;;;18.18;72.39;101997.84;5060553;28;20367;-80
2023/10/09 02:34:10;;;;;;;0.10;0.10;;;;;;;18.19;72.36;102004.06;5046403;28;20026;-80
2023/10/09 02:36:41;;;;;;;0.13;0.13;;;;;;;18.21;71.85;102008.44;5059302;28;20074;-79
2023/10/09 02:39:22;;;;;;;0.20;0.20;;;;;;;18.20;72.27;102008.50;5054829;28;20025;-80
2023/10/09 02:41:50;;;;;;;0.10;0.10;;;;;;;18.21;72.27;102007.56;5060829;28;20025;-80
2023/10/09 02:44:17;;;;;;;0.25;0.25;;;;;;;18.21;72.39;102010.25;5054282;28;20382;-80
2023/10/09 02:46:44;;;;;;;0.30;0.30;;;;;;;18.18;72.53;102002.28;5062950;28;20032;-80
2023/10/09 02:49:15;;;;;;;0.10;0.10;;;;;;;18.21;72.42;102004.91;5060728;28;20057;-80
2023/10/09 02:51:42;;;;;;;0.30;0.30;;;;;;;18.16;72.66;102001.50;5063190;28;20020;-81
2023/10/09 02:54:18;;;;;;;0.43;0.43;;;;;;;18.19;72.67;101998.69;5063271;28;20056;-80
2023/10/09 02:56:47;;;;;;;0.10;0.10;;;;;;;18.19;72.83;101996.00;5050671;28;20043;-80
2023/10/09 02:59:14;;;;;;;0.10;0.10;;;;;;;18.19;72.52;101982.59;5057786;28;20100;-79
2023/10/09 03:01:41;;;;;;;0.85;0.85;;;;;;;18.19;72.74;101994.19;5050969;28;20112;-80
2023/10/09 03:04:10;;;;;;;0.10;0.10;;;;;;;18.20;72.53;102000.44;5053005;28;20074;-79
2023/10/09 03:06:40;;;;;;;0.80;0.80;;;;;;;18.24;72.42;101994.03;5057731;28;20021;-80
2023/10/09 03:09:16;;;;;;;0.10;0.10;;;;;;;18.27;72.20;101983.22;5057569;28;20054;-80
2023/10/09 03:11:48;;;;;;;0.20;0.20;;;;;;;18.28;72.52;101979.63;5056695;28;20028;-80
2023/10/09 03:14:15;;;;;;;0.25;0.25;;;;;;;18.28;71.89;101985.00;5060581;28;20367;-80
2023/10/09 03:16:42;;;;;;;2.10;1.50;;;;;;;18.26;72.22;101978.78;5052572;28;20029;-80
2023/10/09 03:19:13;;;;;;;0.10;0.10;;;;;;;18.27;72.13;101972.50;5059743;28;20500;-80
2023/10/09 03:21:39;;;;;;;0.57;0.57;;;;;;;18.26;72.20;101976.09;5043866;28;20025;-80
2023/10/09 03:24:07;;;;;;;0.55;0.55;;;;;;;18.23;72.56;101970.81;5053613;28;20028;-80
2023/10/09 03:26:34;;;;;;;0.10;0.10;;;;;;;18.28;72.20;101982.31;5058695;28;20400;-81
2023/10/09 03:29:01;;;;;;;0.10;0.10;;;;;;;18.29;72.27;101972.44;5054759;28;20113;-79
2023/10/09 03:31:30;;;;;;;0.10;0.10;;;;;;;18.26;72.35;101976.09;5064228;28;20082;-80
2023/10/09 03:33:57;;;;;;;0.10;0.10;;;;;;;18.29;72.28;101973.31;5049098;28;20025;-81
2023/10/09 03:36:26;;;;;;;0.52;0.52;;;;;;;18.30;72.33;101967.00;5051777;28;20042;-80
2023/10/09 03:38:55;;;;;;;0.17;0.17;;;;;;;18.29;72.55;101975.13;5046640;28;20100;-80
2023/10/09 03:41:21;;;;;;;0.10;0.10;;;;;;;18.31;72.49;101990.22;5044132;28;20045;-81
2023/10/09 03:43:48;;;;;;;0.10;0.10;;;;;;;18.34;72.61;102011.56;5043155;28;20513;-80
2023/10/09 03:46:20;;;;;;;0.10;0.10;;;;;;;18.34;73.13;102016.94;5046788;28;20034;-80
2023/10/09 03:48:51;;;;;;;0.10;0.10;;;;;;;18.37;73.62;102022.22;5049800;28;20387;-81
2023/10/09 03:51:26;;;;;;;0.22;0.22;;;;;;;18.36;74.59;102020.47;5047035;28;20021;-81
2023/10/09 03:53:53;;;;;;;0.55;0.55;;;;;;;18.52;74.23;102011.91;5052045;28;20035;-81
2023/10/09 03:56:21;;;;;;;0.10;0.10;;;;;;;18.59;74.26;102022.38;5047044;28;20057;-80
2023/10/09 03:58:49;;;;;;;0.10;0.10;;;;;;;18.64;74.61;102008.78;5056339;28;20024;-81
2023/10/09 04:03:55;;;;;;;1.48;1.38;;;;;;;18.80;73.92;101998.34;5114822;27;20396;-82
2023/10/09 04:06:22;;;;;;;0.20;0.20;;;;;;;18.84;74.04;101983.00;5115868;28;20031;-82
2023/10/09 04:08:50;;;;;;;0.20;0.20;;;;;;;18.89;73.73;102002.50;5113747;28;20032;-83
2023/10/09 04:11:16;;;;;;;0.10;0.10;;;;;;;18.91;73.77;101998.88;5112839;28;20062;-82
2023/10/09 04:13:46;;;;;;;0.20;0.20;;;;;;;18.98;73.61;102002.22;5111662;28;20085;-81
2023/10/09 04:16:33;;;;;;;0.10;0.10;;;;;;;18.96;73.71;102001.38;5112552;28;20053;-81
2023/10/09 04:18:59;;;;;;;0.15;0.15;;;;;;;19.04;73.67;102003.78;5111617;28;20058;-83
2023/10/09 04:21:41;;;;;;;0.10;0.10;;;;;;;19.00;73.52;102008.38;5111307;28;20036;-83
2023/10/09 04:24:22;;;;;;;2.00;0.73;;;;;;;19.08;73.37;102000.06;5107834;28;20028;-83
2023/10/09 04:26:55;;;;;;;0.17;0.17;;;;;;;19.13;73.29;101987.34;5106767;28;20049;-79
2023/10/09 04:29:38;;;;;;;0.10;0.10;;;;;;;19.13;73.12;101967.63;5110705;28;20398;-81
2023/10/09 04:32:08;;;;;;;1.27;0.70;;;;;;;19.24;72.67;101960.06;5110793;28;20086;-81
2023/10/09 04:34:35;;;;;;;1.67;1.58;;;;;;;19.17;72.78;101953.19;5109016;28;20043;-81
2023/10/09 04:37:19;;;;;;;0.68;0.68;;;;;;;19.23;72.70;101969.06;5109216;28;20102;-80
2023/10/09 04:39:47;;;;;;;0.40;0.40;;;;;;;19.25;72.34;101977.91;5111458;28;20039;-79
2023/10/09 04:48:12;;;;;;;3.65;0.95;;;;;;;19.24;72.38;101993.19;5118053;27;20472;-81
2023/10/09 04:53:22;;;;;;;0.95;0.95;;;;;;;19.34;71.98;102001.75;5131970;27;20387;-81
2023/10/09 04:55:57;;;;;;;1.95;1.85;;;;;;;19.37;71.95;101996.25;5108749;28;20031;-83
2023/10/09 04:58:25;;;;;;;0.20;0.20;;;;;;;19.36;71.79;101999.88;5115121;28;20482;-82
2023/10/09 05:09:09;;;;;;;0.10;0.10;;;;;;;19.44;71.07;101991.53;5112666;28;20043;-77
2023/10/09 05:11:53;;;;;;;0.22;0.20;;;;;;;19.44;71.22;102004.09;5118399;28;20463;-79
2023/10/09 05:14:26;;;;;;;0.13;0.13;;;;;;;19.40;70.75;102017.66;5121830;27;20033;-77
2023/10/09 05:16:54;;;;;;;0.20;0.20;;;;;;;19.46;70.64;102031.78;5113130;28;20027;-78
2023/10/09 05:19:33;;;;;;;0.10;0.10;;;;;;;19.47;70.71;102020.09;5121086;28;20058;-78
2023/10/09 05:22:08;;;;;;;1.55;0.65;;;;;;;19.44;70.73;102028.28;5119222;28;20030;-79
2023/10/09 05:24:54;;;;;;;0.43;0.43;;;;;;;19.38;70.80;102019.50;5124931;27;20032;-78
2023/10/09 05:27:45;;;;;;;1.65;1.00;;;;;;;19.46;70.32;102015.66;5121570;28;20114;-79
2023/10/09 05:30:35;;;;;;;0.10;0.10;;;;;;;19.44;70.64;102028.28;5119291;28;20036;-78
2023/10/09 05:32:58;;;;;;;1.60;1.50;;;;;;;19.46;70.56;102031.78;5121371;28;20031;-78
2023/10/09 05:35:39;;;;;;;1.70;1.60;;;;;;;19.42;70.48;102041.78;5126304;28;20523;-77
2023/10/09 05:38:23;;;;;;;1.45;1.45;;;;;;;19.35;70.54;102030.41;5124432;27;20087;-79
2023/10/09 05:40:53;;;;;;;0.10;0.10;;;;;;;19.42;70.18;102027.47;5125544;28;20089;-81
2023/10/09 05:46:09;;;;;;;0.47;0.47;;;;;;;19.47;70.09;102033.53;5123252;27;20055;-80
2023/10/09 05:51:41;;;;;;;0.65;0.65;;;;;;;19.52;70.10;102007.34;5110887;27;20396;-81
2023/10/09 06:05:40;;;;;;;0.15;0.15;;;;;;;19.54;69.88;101973.25;5108944;28;20068;-80
2023/10/09 06:08:10;;;;;;;0.10;0.10;;;;;;;19.55;69.90;101980.34;5095866;28;20051;-85
2023/10/09 06:10:40;;;;;;;0.10;0.10;;;;;;;19.53;69.89;102003.75;5092852;28;20101;-82
2023/10/09 06:13:25;;;;;;;0.25;0.25;;;;;;;19.51;69.77;102005.59;5097696;28;20087;-82
2023/10/09 06:16:09;;;;;;;0.10;0.10;;;;;;;19.53;69.83;102001.06;5093761;28;20571;-83
2023/10/09 06:18:35;;;;;;;0.28;0.28;;;;;;;19.49;69.87;101980.59;5097722;28;20091;-83
2023/10/09 06:21:28;;;;;;;0.00;0.00;;;;;;;19.47;69.77;101966.34;5105574;28;20025;-82
2023/10/09 06:24:08;;;;;;;0.10;0.10;;;;;;;19.45;69.79;101946.72;5091077;28;20115;-83
2023/10/09 06:26:33;;;;;;;0.20;0.20;;;;;;;19.46;69.87;101978.91;5108720;28;20419;-83
2023/10/09 06:29:14;;;;;;;4.75;1.95;;;;;;;19.45;69.87;102014.81;5105669;28;20032;-83
2023/10/09 06:34:35;;;;;;;0.10;0.10;;;;;;;19.46;70.11;102012.97;5083420;28;20075;-82
2023/10/09 06:37:16;;;;;;;0.17;0.17;;;;;;;19.47;70.17;102020.09;5088703;28;20020;-81
2023/10/09 06:42:43;;;;;;;0.20;0.20;;;;;;;19.48;70.06;102035.31;5082502;28;20428;-79
2023/10/09 06:50:56;;;;;;;1.02;1.02;;;;;;;19.45;70.00;102032.72;5067253;28;20423;-80
2023/10/09 06:53:28;;;;;;;0.15;0.15;;;;;;;19.48;69.86;102046.06;5076432;28;20028;-82
2023/10/09 06:56:05;;;;;;;;;;;;;;;19.68;69.42;102056.91;5074334;28;20029;-82
2023/10/09 06:58:41;;;;;;;0.65;0.65;;;;;;;19.55;69.39;102055.59;5071194;28;19999;-81
2023/10/09 07:04:10;;;;;;;0.85;0.45;;;;;;;19.63;69.13;102034.69;5073717;28;20041;-80
2023/10/09 07:09:18;;;;;;;0.47;0.47;;;;;;;19.76;68.95;102031.53;5105830;27;20398;-80
2023/10/09 07:22:39;;;;;;;0.10;0.10;;;;;;;19.90;68.46;101996.94;5126344;27;21112;-80
2023/10/09 07:25:40;;;;;;;1.10;1.10;;;;;;;19.88;68.43;101998.78;5100938;28;20028;-79
2023/10/09 07:27:53;;;;;;;0.10;0.10;;;;;;;19.93;68.31;101996.78;5097767;28;20120;-79
2023/10/09 07:30:35;;;;;;;0.00;0.00;;;;;;;19.96;68.40;101996.69;5095186;28;20644;-84
2023/10/09 07:35:47;;;;;;;0.38;0.38;;;;;;;19.92;68.63;102010.31;5084903;27;20402;-81
2023/10/09 07:38:21;;;;;;;0.57;0.57;;;;;;;20.00;68.54;102017.13;5073987;28;20028;-80
2023/10/09 07:41:33;;;;;;;0.43;0.43;;;;;;;20.03;68.65;101998.16;5072631;28;20119;-80
2023/10/09 07:43:45;;;;;;;0.28;0.28;;;;;;;20.04;68.34;102002.59;5073136;28;20040;-80
2023/10/09 07:49:12;;;;;;;0.10;0.10;;;;;;;20.12;68.74;101979.88;5072072;28;20083;-80
2023/10/09 07:51:43;;;;;;;2.42;2.03;;;;;;;20.09;68.55;101969.22;5088207;28;20036;-80
2023/10/09 07:54:14;;;;;;;1.50;1.47;;;;;;;20.02;69.08;101963.25;5067435;28;20024;-80
2023/10/09 07:56:43;;;;;;;0.17;0.17;;;;;;;20.10;68.90;101960.22;5078917;28;20275;-80
2023/10/09 07:59:10;;;;;;;1.88;1.08;;;;;;;20.11;69.05;101984.41;5072671;28;20028;-81
2023/10/09 08:04:37;;;;;;;0.30;0.30;;;;;;;20.27;68.79;102011.50;5082450;28;20062;-80
2023/10/09 08:07:07;;;;;;;1.38;0.47;;;;;;;20.36;68.60;102021.91;5079046;28;20201;-80
2023/10/09 08:10:58;;;;;;;0.10;0.10;;;;;;;20.43;68.56;102016.25;5077788;28;20100;-80
2023/10/09 08:12:39;;;;;;;0.40;0.40;;;;;;;20.51;68.48;102020.38;5073203;28;20406;-80
2023/10/09 08:15:26;;;;;;;0.45;0.45;;;;;;;20.59;68.44;102022.72;5077601;28;20413;-79
2023/10/09 08:18:09;;;;;;;0.10;0.10;;;;;;;20.73;68.14;102032.06;5073948;28;20024;-80
2023/10/09 08:23:28;;;;;;;0.20;0.20;;;;;;;20.84;67.75;102057.56;5073676;28;20044;-78
2023/10/09 08:26:12;;;;;;;0.80;0.80;;;;;;;20.88;66.78;102058.31;5065931;28;20036;-80
2023/10/09 08:28:42;;;;;;;0.30;0.30;;;;;;;20.93;66.78;102064.34;5085302;28;20036;-79
2023/10/09 08:31:19;;;;;;;0.15;0.15;;;;;;;21.01;66.42;102054.13;5079470;28;20115;-80
2023/10/09 08:33:56;;;;;;;0.20;0.20;;;;;;;21.10;66.13;102070.84;5073665;28;20086;-80
2023/10/09 08:36:28;;;;;;;0.00;0.00;;;;;;;21.15;65.56;102074.19;5076409;28;20446;-79
2023/10/09 08:38:58;;;;;;;0.20;0.20;;;;;;;21.07;64.66;102081.72;5067883;28;20116;-79
2023/10/09 08:41:29;;;;;;;0.68;0.68;;;;;;;21.25;65.12;102080.03;5076481;28;20082;-80
2023/10/09 08:43:57;;;;;;;0.10;0.10;;;;;;;21.28;64.79;102090.66;5071389;28;20039;-79
2023/10/09 08:46:27;;;;;;;0.20;0.20;;;;;;;21.24;64.08;102094.47;5063712;28;20032;-80
2023/10/09 08:48:58;;;;;;;2.85;1.42;;;;;;;21.38;64.30;102100.06;5053733;28;20030;-80
2023/10/09 08:51:26;;;;;;;0.80;0.80;;;;;;;21.48;64.35;102097.84;5061146;28;20029;-80
2023/10/09 08:53:53;;;;;;;0.10;0.10;;;;;;;21.58;64.70;102096.53;5067401;28;20028;-80
2023/10/09 08:56:22;;;;;;;0.15;0.15;;;;;;;21.56;64.20;102101.09;5065588;28;20524;-81
2023/10/09 09:01:27;;;;;;;0.30;0.30;;;;;;;;;;5058394;28;20406;-79
2023/10/09 09:03:55;;;;;;;0.25;0.25;;;;;;;21.74;63.89;102098.47;5056955;28;20103;-80
2023/10/09 09:06:23;;;;;;;0.00;0.00;;;;;;;21.77;63.59;102098.31;5045738;28;20040;-81
2023/10/09 09:08:55;;;;;;;0.30;0.30;;;;;;;21.80;63.42;102103.59;5049195;28;20029;-81
2023/10/09 09:11:25;;;;;;;0.10;0.10;;;;;;;21.77;63.07;102110.00;5044005;28;20065;-81
2023/10/09 09:16:31;;;;;;;0.10;0.10;;;;;;;21.97;63.17;102111.75;5105916;27;20380;-80
2023/10/09 09:21:44;;;;;;;0.70;0.52;;;;;;;21.95;61.75;102115.47;5122585;27;20208;-80
2023/10/09 09:24:30;;;;;;;0.40;0.40;;;;;;;21.89;61.14;102122.03;5112278;28;20024;-81
2023/10/09 09:27:32;;;;;;;0.15;0.15;;;;;;;22.00;60.88;102120.66;5103621;28;20023;-81
2023/10/09 09:29:54;;;;;;;0.63;0.63;;;;;;;22.03;60.35;102110.59;5105359;28;20043;-80
2023/10/09 09:32:35;;;;;;;1.75;1.55;;;;;;;22.17;60.15;102112.63;5099684;28;20075;-79
2023/10/09 09:35:05;;;;;;;0.75;0.47;;;;;;;22.14;59.43;102110.06;5104700;28;20054;-80
2023/10/09 09:40:27;;;;;;;0.90;0.82;;;;;;;22.36;59.38;102111.72;5108582;27;20371;-81
2023/10/09 09:43:03;;;;;;;1.33;1.27;;;;;;;22.46;59.55;102107.63;5089657;28;20029;-79
2023/10/09 09:45:32;;;;;;;0.15;0.15;;;;;;;22.51;58.90;102116.38;5089316;28;20036;-80
2023/10/09 09:48:06;;;;;;;1.15;1.13;;;;;;;22.45;57.84;102119.38;5082779;28;20074;-82
2023/10/09 09:50:36;;;;;;;0.43;0.43;;;;;;;22.54;58.03;102109.94;5070184;28;20033;-80
2023/10/09 09:53:03;;;;;;;0.10;0.10;;;;;;;22.56;58.29;102114.31;5080995;28;20051;-80
2023/10/09 09:55:41;;;;;;;0.15;0.15;;;;;;;22.66;58.05;102116.56;5077213;28;20465;-81
2023/10/09 09:58:18;;;;;;;0.20;0.20;;;;;;;22.59;57.97;102107.88;5063360;28;20493;-82
2023/10/09 10:00:52;;;;;;;0.10;0.10;;;;;;;22.61;57.49;102111.38;5067856;28;20036;-82
2023/10/09 10:03:26;;;;;;;0.30;0.30;;;;;;;22.65;57.82;102112.09;5080158;28;20032;-82
2023/10/09 10:05:56;;;;;;;0.10;0.10;;;;;;;22.60;57.90;102110.50;5077959;28;20071;-81
2023/10/09 10:08:32;;;;;;;0.32;0.32;;;;;;;22.42;56.81;102106.91;5081768;28;20042;-81
2023/10/09 10:11:06;;;;;;;0.20;0.20;;;;;;;22.61;57.79;102105.97;5083004;28;20397;-82
2023/10/09 10:16:24;;;;;;;0.10;0.10;;;;;;;22.55;57.48;102107.16;5070228;28;20397;-83
2023/10/09 10:18:59;;;;;;;0.32;0.32;;;;;;;22.57;57.61;102116.06;5059407;28;20033;-82
2023/10/09 10:21:39;;;;;;;0.10;0.10;;;;;;;22.55;57.00;102119.78;5059796;28;20455;-81
2023/10/09 10:24:28;;;;;;;0.10;0.10;;;;;;;22.55;57.18;102123.34;5057656;28;20051;-83
2023/10/09 10:27:24;;;;;;;0.10;0.10;;;;;;;22.85;57.10;102129.97;5058134;28;20099;-83
2023/10/09 10:32:57;;;;;;;0.15;0.15;;;;;;;22.94;56.09;102124.97;5095830;28;20362;-83
2023/10/09 10:35:32;;;;;;;0.77;0.77;;;;;;;23.01;57.01;102130.06;5099039;28;20107;-83
2023/10/09 10:38:11;;;;;;;0.73;0.73;;;;;;;23.12;56.24;102126.81;5094512;28;20037;-83
2023/10/09 10:40:38;;;;;;;0.35;0.35;;;;;;;23.11;55.39;102131.31;5077005;28;20037;-83
2023/10/09 10:43:09;;;;;;;2.63;1.85;;;;;;;23.03;56.34;102134.44;5084369;28;20025;-83
2023/10/09 10:45:43;;;;;;;0.30;0.30;;;;;;;23.08;55.73;102145.00;5080653;28;20496;-82
2023/10/09 10:48:22;;;;;;;0.75;0.75;;;;;;;23.17;56.38;102141.84;5074707;28;20031;-83
2023/10/09 10:50:57;;;;;;;0.30;0.30;;;;;;;23.10;55.54;102140.38;5073766;28;20071;-79
2023/10/09 10:53:27;;;;;;;0.80;0.77;;;;;;;23.27;55.85;102126.88;5067269;28;20039;-81
2023/10/09 11:01:57;;;;;;;0.40;0.40;;;;;;;23.50;54.76;102130.19;5117287;27;20411;-82
2023/10/09 11:07:12;;;;;;;2.03;1.85;;;;;;;23.54;55.26;102123.66;5074548;28;20406;-81
2023/10/09 11:12:24;;;;;;;0.03;0.03;;;;;;;23.53;54.64;102131.84;5062224;28;20385;-81
2023/10/09 11:15:06;;;;;;;0.43;0.43;;;;;;;23.61;54.79;102129.59;5082346;28;20111;-82
2023/10/09 11:17:35;;;;;;;1.23;0.52;;;;;;;23.69;55.05;102115.63;5063911;28;20040;-81
2023/10/09 11:20:31;;;;;;;0.28;0.28;;;;;;;23.75;54.89;102108.06;5079140;28;20016;-81
2023/10/09 11:23:35;;;;;;;0.28;0.28;;;;;;;23.84;55.08;102112.09;5068663;28;20537;-82
2023/10/09 11:25:50;;;;;;;0.10;0.10;;;;;;;23.95;54.38;102107.91;5074776;28;20044;-82
2023/10/09 11:28:57;;;;;;;0.10;0.10;;;;;;;24.04;54.11;102115.53;5058062;28;20044;-82
2023/10/09 11:31:11;;;;;;;0.17;0.17;;;;;;;24.00;53.80;102111.22;5070446;28;20034;-81
2023/10/09 11:33:53;;;;;;;0.00;0.00;;;;;;;24.04;53.77;102120.94;5065777;28;20060;-84
2023/10/09 11:36:38;;;;;;;0.47;0.47;;;;;;;24.06;53.67;102117.19;5062896;28;20076;-81
2023/10/09 11:39:23;;;;;;;0.00;0.00;;;;;;;24.09;53.38;102113.44;5075529;28;20099;-82
2023/10/09 11:41:55;;;;;;;0.10;0.10;;;;;;;23.97;52.76;102101.47;5076564;28;20066;-82
2023/10/09 11:44:33;;;;;;;;;;;;;;;24.07;52.50;102115.34;5077099;28;20078;-82
2023/10/09 11:47:33;;;;;;;0.00;0.00;;;;;;;24.03;52.92;102103.81;5089378;28;19912;-81
2023/10/09 11:52:56;;;;;;;0.10;0.10;;;;;;;23.92;53.33;102103.56;5126104;27;20706;-82
2023/10/09 11:55:16;;;;;;;0.10;0.10;;;;;;;23.92;52.89;102097.28;5120852;27;20053;-83
2023/10/09 11:57:42;;;;;;;0.10;0.10;;;;;;;23.92;53.97;102111.69;5133351;28;20020;-80
2023/10/09 12:00:25;;;;;;;0.03;0.03;;;;;;;23.81;53.79;102108.66;5131733;28;20111;-79
2023/10/09 12:02:52;;;;;;;0.00;0.00;;;;;;;23.85;53.97;102108.41;5117495;28;20028;-82
2023/10/09 12:05:18;;;;;;;0.50;0.50;;;;;;;23.83;54.33;102106.75;5112719;28;20027;-79
2023/10/09 12:07:45;;;;;;;0.10;0.10;;;;;;;23.92;54.18;102110.81;5108911;28;20161;-82
2023/10/09 12:10:14;;;;;;;0.10;0.10;;;;;;;23.81;54.17;102106.81;5110142;28;20568;-82
2023/10/09 12:12:46;;;;;;;0.93;0.85;;;;;;;23.68;54.40;102098.53;5111970;28;20043;-82
2023/10/09 12:15:17;;;;;;;0.10;0.10;;;;;;;23.78;54.52;102098.91;5112543;28;20045;-81
2023/10/09 12:17:46;;;;;;;0.52;0.52;;;;;;;23.77;54.61;102102.56;5112322;28;20024;-82
2023/10/09 12:20:29;;;;;;;0.00;0.00;;;;;;;23.86;54.67;102093.03;5112035;28;20513;-83
2023/10/09 12:22:57;;;;;;;0.08;0.08;;;;;;;23.82;54.63;102102.31;5106304;28;20028;-82
2023/10/09 12:25:24;;;;;;;1.17;0.75;;;;;;;23.80;54.67;102091.56;5108770;28;20055;-82
2023/10/09 12:27:54;;;;;;;7.03;1.58;;;;;;;23.75;53.83;102099.94;5111231;28;20116;-82
2023/10/09 12:30:26;;;;;;;0.10;0.10;;;;;;;23.69;53.91;102094.88;5111178;28;20024;-82
2023/10/09 12:32:53;;;;;;;2.72;2.50;;;;;;;23.69;54.03;102100.28;5098826;28;20028;-81
2023/10/09 12:35:28;;;;;;;0.10;0.10;;;;;;;23.82;54.40;102099.59;5105171;28;20081;-82
2023/10/09 12:37:58;;;;;;;0.20;0.20;;;;;;;23.72;54.42;102096.53;5097799;28;20471;-80
2023/10/09 12:40:30;;;;;;;0.45;0.45;;;;;;;23.81;54.83;102093.28;5102386;28;20073;-82
2023/10/09 12:43:00;;;;;;;0.40;0.40;;;;;;;23.83;54.57;102096.78;5097182;28;20063;-79
2023/10/09 12:45:27;;;;;;;0.93;0.73;;;;;;;23.69;54.40;102103.00;5102872;28;20036;-82
2023/10/09 12:47:58;;;;;;;0.38;0.38;;;;;;;23.51;54.30;102095.88;5110488;27;20034;-81
2023/10/09 12:50:27;;;;;;;0.17;0.17;;;;;;;23.53;54.80;102102.97;5098840;28;20034;-82
2023/10/09 12:52:55;;;;;;;0.10;0.10;;;;;;;23.53;54.59;102100.25;5107455;28;20028;-82
2023/10/09 12:55:21;;;;;;;0.20;0.20;;;;;;;23.61;54.48;102096.25;5107170;28;20552;-82
2023/10/09 12:57:48;;;;;;;0.10;0.10;;;;;;;23.54;54.67;102102.00;5108044;28;20035;-82
2023/10/09 13:00:25;;;;;;;2.75;0.73;;;;;;;23.61;54.26;102117.91;5101657;28;20077;-82
2023/10/09 13:02:51;;;;;;;0.10;0.10;;;;;;;23.59;54.49;102112.59;5100454;28;20726;-81
2023/10/09 13:05:26;;;;;;;0.40;0.40;;;;;;;23.65;54.73;102098.72;5092632;28;20040;-81
2023/10/09 13:07:53;;;;;;;0.10;0.10;;;;;;;23.64;54.67;102109.59;5081443;28;20020;-81
2023/10/09 13:10:20;;;;;;;0.00;0.00;;;;;;;23.54;55.01;102093.88;5083935;28;20059;-81
2023/10/09 13:12:46;;;;;;;2.53;1.42;;;;;;;23.57;55.00;102101.81;5080749;28;20036;-81
2023/10/09 13:15:13;;;;;;;0.15;0.15;;;;;;;23.57;55.20;102096.41;5089007;28;20475;-81
2023/10/09 13:17:39;;;;;;;0.03;0.03;;;;;;;23.72;55.36;102100.09;5094882;28;20114;-81
2023/10/09 13:20:12;;;;;;;0.08;0.08;;;;;;;23.83;55.28;102096.78;5095770;28;20545;-81
2023/10/09 13:22:41;;;;;;;0.75;0.75;;;;;;;23.99;55.12;102104.06;5093360;28;20039;-81
2023/10/09 13:25:15;;;;;;;0.00;0.00;;;;;;;24.02;54.37;102106.63;5090466;28;20032;-82
2023/10/09 13:27:50;;;;;;;1.15;0.82;;;;;;;24.12;54.80;102117.78;5088142;28;20640;-81
2023/10/09 13:30:21;;;;;;;0.00;0.00;;;;;;;23.85;53.83;102113.84;5087577;28;20039;-81
2023/10/09 13:32:49;;;;;;;0.00;0.00;;;;;;;23.77;54.17;102107.97;5094197;28;20024;-79
2023/10/09 13:35:17;;;;;;;0.32;0.32;;;;;;;23.76;54.63;102100.81;5086441;28;20039;-81
2023/10/09 13:37:44;;;;;;;0.63;0.63;;;;;;;23.66;54.49;102099.56;5085756;28;20028;-81
2023/10/09 13:40:11;;;;;;;0.17;0.17;;;;;;;23.54;54.66;102102.00;5086629;28;20119;-81
2023/10/09 13:42:37;;;;;;;0.10;0.10;;;;;;;23.63;54.86;102095.22;5091703;28;20028;-82
2023/10/09 13:45:07;;;;;;;1.23;1.20;;;;;;;23.48;54.72;102096.94;5084547;28;20024;-81